createdAt,value
2023-01-27T00:00:29.577Z,98550.00
2023-01-27T00:02:59.556Z,98538.00
2023-01-27T00:05:29.505Z,98536.00
2023-01-27T00:08:02.044Z,98549.00
2023-01-27T00:10:31.998Z,98538.00
2023-01-27T00:13:14.269Z,98542.00
2023-01-27T00:15:44.224Z,98542.00
2023-01-27T00:18:14.362Z,98548.00
2023-01-27T00:20:56.695Z,98551.00
2023-01-27T00:23:42.566Z,98552.00
2023-01-27T00:26:14.615Z,98555.00
2023-01-27T00:28:46.271Z,98552.00
2023-01-27T00:31:30.619Z,98555.00
2023-01-27T00:34:02.069Z,98564.00
2023-01-27T00:36:32.760Z,98561.00
2023-01-27T00:39:05.514Z,98559.00
2023-01-27T00:41:35.671Z,98566.00
2023-01-27T00:44:06.292Z,98566.00
2023-01-27T00:46:36.422Z,98568.00
2023-01-27T00:49:06.414Z,98569.00
2023-01-27T00:51:36.997Z,98564.00
2023-01-27T00:54:09.662Z,98560.00
2023-01-27T00:56:40.129Z,98571.00
2023-01-27T00:59:10.274Z,98568.00
2023-01-27T01:01:40.690Z,98577.00
2023-01-27T01:04:10.670Z,98568.00
2023-01-27T01:06:40.645Z,98568.00
2023-01-27T01:09:13.209Z,98569.00
2023-01-27T01:11:43.245Z,98570.00
2023-01-27T01:14:13.211Z,98565.00
2023-01-27T01:16:43.196Z,98571.00
2023-01-27T01:19:14.412Z,98568.00
2023-01-27T01:21:44.420Z,98569.00
2023-01-27T01:24:17.052Z,98551.00
2023-01-27T01:26:47.056Z,98558.00
2023-01-27T01:29:17.037Z,98563.00
2023-01-27T01:31:47.061Z,98555.00
2023-01-27T01:34:17.001Z,98549.00
2023-01-27T01:36:47.279Z,98563.00
2023-01-27T01:39:19.786Z,98547.00
2023-01-27T01:41:49.798Z,98539.00
2023-01-27T01:44:27.273Z,98537.00
2023-01-27T01:46:57.320Z,98529.00
2023-01-27T01:49:30.348Z,98542.00
2023-01-27T01:52:02.183Z,98534.00
2023-01-27T01:54:36.975Z,98530.00
2023-01-27T01:57:09.576Z,98534.00
2023-01-27T01:59:41.985Z,98536.00
2023-01-27T02:02:14.343Z,98540.00
2023-01-27T02:04:48.565Z,98542.00
2023-01-27T02:07:23.126Z,98536.00
2023-01-27T02:09:58.151Z,98547.00
2023-01-27T02:12:28.180Z,98549.00
2023-01-27T02:14:58.334Z,98536.00
2023-01-27T02:17:28.298Z,98539.00
2023-01-27T02:20:08.365Z,98535.00
2023-01-27T02:22:44.331Z,98536.00
2023-01-27T02:25:20.701Z,98538.00
2023-01-27T02:27:53.283Z,98536.00
2023-01-27T02:30:23.614Z,98537.00
2023-01-27T02:32:53.680Z,98539.00
2023-01-27T02:35:26.853Z,98543.00
2023-01-27T02:37:57.177Z,98539.00
2023-01-27T02:40:27.955Z,98539.00
2023-01-27T02:43:00.605Z,98545.00
2023-01-27T02:45:31.720Z,98541.00
2023-01-27T02:48:02.879Z,98541.00
2023-01-27T02:50:33.149Z,98540.00
2023-01-27T02:53:03.115Z,98538.00
2023-01-27T02:55:33.046Z,98539.00
2023-01-27T02:58:05.693Z,98529.00
2023-01-27T03:00:46.274Z,98540.00
2023-01-27T03:03:16.433Z,98526.00
2023-01-27T03:05:47.559Z,98519.00
2023-01-27T03:08:17.571Z,98537.00
2023-01-27T03:10:47.975Z,98531.00
2023-01-27T03:13:24.349Z,98514.00
2023-01-27T03:16:07.951Z,98512.00
2023-01-27T03:18:38.056Z,98529.00
2023-01-27T03:21:10.045Z,98522.00
2023-01-27T03:23:40.213Z,98527.00
2023-01-27T03:26:11.061Z,98522.00
2023-01-27T03:29:06.957Z,98539.00
2023-01-27T03:31:38.845Z,98528.00
2023-01-27T03:34:08.940Z,98524.00
2023-01-27T03:37:03.571Z,98529.00
2023-01-27T03:39:46.413Z,98537.00
2023-01-27T03:42:28.764Z,98539.00
2023-01-27T03:45:14.595Z,98538.00
2023-01-27T03:47:44.782Z,98540.00
2023-01-27T03:50:19.498Z,98535.00
2023-01-27T03:53:03.411Z,98526.00
2023-01-27T03:55:33.551Z,98544.00
2023-01-27T03:58:14.763Z,98542.00
2023-01-27T04:00:48.463Z,98550.00
2023-01-27T04:03:30.820Z,98552.00
2023-01-27T04:06:13.146Z,98553.00
2023-01-27T04:08:45.991Z,98547.00
2023-01-27T04:11:30.308Z,98549.00
2023-01-27T04:14:03.894Z,98557.00
2023-01-27T04:16:37.141Z,98557.00
2023-01-27T04:19:08.141Z,98558.00
2023-01-27T04:21:38.466Z,98564.00
2023-01-27T04:24:17.381Z,98558.00
2023-01-27T04:26:47.864Z,98563.00
2023-01-27T04:29:17.961Z,98550.00
2023-01-27T04:31:50.844Z,98567.00
2023-01-27T04:34:21.269Z,98566.00
2023-01-27T04:36:51.489Z,98566.00
2023-01-27T04:39:21.957Z,98549.00
2023-01-27T04:41:52.125Z,98569.00
2023-01-27T04:44:23.041Z,98576.00
2023-01-27T04:46:56.188Z,98578.00
2023-01-27T04:49:26.991Z,98575.00
2023-01-27T04:51:57.187Z,98576.00
2023-01-27T04:54:27.141Z,98573.00
2023-01-27T04:56:59.123Z,98572.00
2023-01-27T04:59:29.962Z,98573.00
2023-01-27T05:02:04.837Z,98573.00
2023-01-27T05:04:35.003Z,98569.00
2023-01-27T05:07:06.124Z,98580.00
2023-01-27T05:09:36.098Z,98578.00
2023-01-27T05:12:06.162Z,98579.00
2023-01-27T05:14:36.088Z,98588.00
2023-01-27T05:17:08.741Z,98582.00
2023-01-27T05:19:38.757Z,98591.00
2023-01-27T05:22:11.266Z,98586.00
2023-01-27T05:24:41.352Z,98588.00
2023-01-27T05:27:11.357Z,98585.00
2023-01-27T05:29:41.324Z,98584.00
2023-01-27T05:32:13.930Z,98585.00
2023-01-27T05:34:43.948Z,98583.00
2023-01-27T05:37:14.143Z,98594.00
2023-01-27T05:39:44.170Z,98592.00
2023-01-27T05:42:14.213Z,98588.00
2023-01-27T05:44:44.241Z,98590.00
2023-01-27T05:47:17.015Z,98585.00
2023-01-27T05:49:47.031Z,98594.00
2023-01-27T05:52:17.006Z,98591.00
2023-01-27T05:54:47.039Z,98597.00
2023-01-27T05:57:16.988Z,98595.00
2023-01-27T05:59:55.437Z,98590.00
2023-01-27T06:02:27.998Z,98601.00
2023-01-27T06:04:58.165Z,98606.00
2023-01-27T06:07:28.119Z,98596.00
2023-01-27T06:09:58.289Z,98603.00
2023-01-27T06:12:28.285Z,98610.00
2023-01-27T06:15:00.369Z,98609.00
2023-01-27T06:17:32.973Z,98608.00
2023-01-27T06:20:02.955Z,98605.00
2023-01-27T06:22:32.981Z,98612.00
2023-01-27T06:25:03.005Z,98605.00
2023-01-27T06:27:32.994Z,98608.00
2023-01-27T06:30:02.988Z,98601.00
2023-01-27T06:32:35.564Z,98603.00
2023-01-27T06:35:05.551Z,98607.00
2023-01-27T06:37:35.589Z,98600.00
2023-01-27T06:40:05.690Z,98618.00
2023-01-27T06:42:38.884Z,98609.00
2023-01-27T06:45:10.167Z,98616.00
2023-01-27T06:47:42.971Z,98621.00
2023-01-27T06:50:14.447Z,98620.00
2023-01-27T06:52:44.772Z,98618.00
2023-01-27T06:55:15.268Z,98620.00
2023-01-27T06:57:47.865Z,98622.00
2023-01-27T07:00:19.210Z,98625.00
2023-01-27T07:02:53.971Z,98631.00
2023-01-27T07:05:24.019Z,98629.00
2023-01-27T07:07:54.086Z,98633.00
2023-01-27T07:10:24.052Z,98631.00
2023-01-27T07:12:54.662Z,98634.00
2023-01-27T07:15:24.666Z,98643.00
2023-01-27T07:17:57.304Z,98631.00
2023-01-27T07:20:28.813Z,98639.00
2023-01-27T07:23:00.138Z,98641.00
2023-01-27T07:25:31.127Z,98627.00
2023-01-27T07:28:01.252Z,98636.00
2023-01-27T07:30:31.434Z,98629.00
2023-01-27T07:33:08.795Z,98633.00
2023-01-27T07:35:39.169Z,98620.00
2023-01-27T07:38:09.759Z,98634.00
2023-01-27T07:40:39.746Z,98637.00
2023-01-27T07:43:09.875Z,98633.00
2023-01-27T07:45:42.983Z,98648.00
2023-01-27T07:48:16.599Z,98647.00
2023-01-27T07:50:46.576Z,98642.00
2023-01-27T07:53:16.539Z,98645.00
2023-01-27T07:55:46.555Z,98643.00
2023-01-27T07:58:16.837Z,98644.00
2023-01-27T08:00:46.889Z,98645.00
2023-01-27T08:03:27.556Z,98640.00
2023-01-27T08:05:57.529Z,98642.00
2023-01-27T08:08:27.582Z,98647.00
2023-01-27T08:10:57.520Z,98645.00
2023-01-27T08:13:27.636Z,98647.00
2023-01-27T08:16:01.046Z,98643.00
2023-01-27T08:18:33.649Z,98650.00
2023-01-27T08:21:05.065Z,98651.00
2023-01-27T08:23:35.638Z,98654.00
2023-01-27T08:26:07.527Z,98652.00
2023-01-27T08:28:39.849Z,98648.00
2023-01-27T08:31:11.059Z,98656.00
2023-01-27T08:33:44.279Z,98651.00
2023-01-27T08:36:16.513Z,98652.00
2023-01-27T08:38:49.340Z,98656.00
2023-01-27T08:41:21.301Z,98660.00
2023-01-27T08:43:51.507Z,98652.00
2023-01-27T08:46:21.400Z,98661.00
2023-01-27T08:48:54.213Z,98656.00
2023-01-27T08:51:24.247Z,98652.00
2023-01-27T08:53:54.232Z,98662.00
2023-01-27T08:56:24.212Z,98663.00
2023-01-27T08:58:54.331Z,98659.00
2023-01-27T09:01:24.573Z,98674.00
2023-01-27T09:03:57.091Z,98675.00
2023-01-27T09:06:27.134Z,98673.00
2023-01-27T09:09:12.292Z,98673.00
2023-01-27T09:11:44.146Z,98672.00
2023-01-27T09:14:14.673Z,98684.00
2023-01-27T09:16:44.661Z,98685.00
2023-01-27T09:19:17.227Z,98682.00
2023-01-27T09:21:47.247Z,98686.00
2023-01-27T09:24:18.095Z,98691.00
2023-01-27T09:26:48.698Z,98690.00
2023-01-27T09:29:18.674Z,98702.00
2023-01-27T09:31:48.918Z,98703.00
2023-01-27T09:34:21.882Z,98700.00
2023-01-27T09:36:54.654Z,98696.00
2023-01-27T09:39:25.128Z,98708.00
2023-01-27T09:42:14.972Z,98712.00
2023-01-27T09:45:20.339Z,98706.00
2023-01-27T09:48:16.766Z,98709.00
2023-01-27T09:50:55.131Z,98717.00
2023-01-27T09:53:58.446Z,98711.00
2023-01-27T09:56:38.763Z,98712.00
2023-01-27T09:59:24.023Z,98718.00
2023-01-27T10:02:00.690Z,98725.00
2023-01-27T10:04:56.258Z,98714.00
2023-01-27T10:07:57.077Z,98713.00
2023-01-27T10:10:36.464Z,98716.00
2023-01-27T10:13:10.485Z,98715.00
2023-01-27T10:15:50.808Z,98715.00
2023-01-27T10:18:33.340Z,98706.00
2023-01-27T10:21:07.463Z,98711.00
2023-01-27T10:23:45.905Z,98718.00
2023-01-27T10:26:24.187Z,98716.00
2023-01-27T10:28:54.945Z,98709.00
2023-01-27T10:31:28.748Z,98713.00
2023-01-27T10:34:01.868Z,98678.00
2023-01-27T10:36:33.156Z,98706.00
2023-01-27T10:39:15.528Z,98707.00
2023-01-27T10:41:51.835Z,98707.00
2023-01-27T10:44:34.364Z,98696.00
2023-01-27T10:47:10.295Z,98695.00
2023-01-27T10:49:43.256Z,98701.00
2023-01-27T10:52:16.422Z,98692.00
2023-01-27T10:54:54.058Z,98703.00
2023-01-27T10:57:26.880Z,98714.00
2023-01-27T11:00:27.599Z,98703.00
2023-01-27T11:03:01.021Z,98707.00
2023-01-27T11:05:34.193Z,98709.00
2023-01-27T11:08:08.776Z,98696.00
2023-01-27T11:11:06.127Z,98690.00
2023-01-27T11:13:36.754Z,98687.00
2023-01-27T11:16:08.002Z,98685.00
2023-01-27T11:18:39.322Z,98685.00
2023-01-27T11:21:12.523Z,98690.00
2023-01-27T11:23:45.754Z,98689.00
2023-01-27T11:26:24.547Z,98694.00
2023-01-27T11:28:58.356Z,98679.00
2023-01-27T11:31:38.672Z,98691.00
2023-01-27T11:34:10.744Z,98689.00
2023-01-27T11:36:40.733Z,98683.00
2023-01-27T11:39:13.104Z,98683.00
2023-01-27T11:41:50.600Z,98679.00
2023-01-27T11:44:22.377Z,98678.00
2023-01-27T11:46:52.816Z,98689.00
2023-01-27T11:49:26.147Z,98682.00
2023-01-27T11:52:05.698Z,98681.00
2023-01-27T11:54:39.481Z,98678.00
2023-01-27T11:57:18.949Z,98672.00
2023-01-27T11:59:49.719Z,98677.00
2023-01-27T12:02:27.344Z,98670.00
2023-01-27T12:05:04.430Z,98675.00
2023-01-27T12:07:43.727Z,98664.00
2023-01-27T12:10:28.141Z,98668.00
2023-01-27T12:13:03.136Z,98658.00
2023-01-27T12:15:33.612Z,98663.00
2023-01-27T12:18:05.707Z,98667.00
2023-01-27T12:20:39.026Z,98663.00
2023-01-27T12:23:19.583Z,98671.00
2023-01-27T12:25:51.173Z,98667.00
2023-01-27T12:28:33.291Z,98670.00
2023-01-27T12:31:08.704Z,98676.00
2023-01-27T12:33:40.990Z,98666.00
2023-01-27T12:36:15.889Z,98676.00
2023-01-27T12:38:52.105Z,98667.00
2023-01-27T12:41:27.025Z,98684.00
2023-01-27T12:44:02.084Z,98663.00
2023-01-27T12:46:32.740Z,98672.00
2023-01-27T12:49:07.174Z,98681.00
2023-01-27T12:51:45.331Z,98682.00
2023-01-27T12:54:20.300Z,98687.00
2023-01-27T12:56:50.954Z,98681.00
2023-01-27T12:59:25.987Z,98683.00
2023-01-27T13:02:06.414Z,98689.00
2023-01-27T13:04:37.497Z,98686.00
2023-01-27T13:07:10.176Z,98683.00
2023-01-27T13:09:42.555Z,98683.00
2023-01-27T13:12:20.584Z,98679.00
2023-01-27T13:14:57.531Z,98690.00
2023-01-27T13:17:33.026Z,98690.00
2023-01-27T13:20:06.507Z,98692.00
2023-01-27T13:22:43.371Z,98696.00
2023-01-27T13:25:20.687Z,98703.00
2023-01-27T13:27:52.316Z,98697.00
2023-01-27T13:30:30.739Z,98702.00
2023-01-27T13:33:06.821Z,98682.00
2023-01-27T13:35:40.442Z,98694.00
2023-01-27T13:38:18.213Z,98701.00
2023-01-27T13:40:49.545Z,98697.00
2023-01-27T13:43:24.031Z,98699.00
2023-01-27T13:46:01.696Z,98711.00
2023-01-27T13:48:35.943Z,98706.00
2023-01-27T13:51:10.201Z,98708.00
2023-01-27T13:53:40.672Z,98717.00
2023-01-27T13:56:26.011Z,98709.00
2023-01-27T13:59:03.609Z,98715.00
2023-01-27T14:01:46.358Z,98716.00
2023-01-27T14:04:28.465Z,98728.00
2023-01-27T14:07:13.385Z,98737.00
2023-01-27T14:09:49.551Z,98738.00
2023-01-27T14:12:32.866Z,98736.00
2023-01-27T14:15:09.121Z,98729.00
2023-01-27T14:17:46.773Z,98740.00
2023-01-27T14:20:24.819Z,98736.00
2023-01-27T14:23:04.554Z,98729.00
2023-01-27T14:25:39.502Z,98735.00
2023-01-27T14:28:13.080Z,98732.00
2023-01-27T14:30:45.179Z,98746.00
2023-01-27T14:33:23.243Z,98746.00
2023-01-27T14:35:57.806Z,98739.00
2023-01-27T14:38:34.155Z,98745.00
2023-01-27T14:41:13.527Z,98745.00
2023-01-27T14:43:48.061Z,98746.00
2023-01-27T14:46:25.584Z,98750.00
2023-01-27T14:49:07.105Z,98740.00
2023-01-27T14:51:41.967Z,98749.00
2023-01-27T14:54:29.169Z,98748.00
2023-01-27T14:57:10.833Z,98757.00
2023-01-27T14:59:44.864Z,98743.00
2023-01-27T15:02:25.160Z,98747.00
2023-01-27T15:05:03.436Z,98747.00
2023-01-27T15:07:38.278Z,98752.00
2023-01-27T15:10:24.176Z,98753.00
2023-01-27T15:13:20.998Z,98756.00
2023-01-27T15:16:25.274Z,98756.00
2023-01-27T15:19:32.417Z,98748.00
2023-01-27T15:22:37.811Z,98748.00
2023-01-27T15:25:29.880Z,98750.00
2023-01-27T15:28:00.556Z,98758.00
2023-01-27T15:30:31.905Z,98755.00
2023-01-27T15:33:01.967Z,98752.00
2023-01-27T15:35:49.593Z,98762.00
2023-01-27T15:38:37.907Z,98764.00
2023-01-27T15:41:14.158Z,98766.00
2023-01-27T15:43:46.475Z,98763.00
2023-01-27T15:46:28.214Z,98771.00
2023-01-27T15:49:00.617Z,98757.00
2023-01-27T15:51:32.962Z,98769.00
2023-01-27T15:54:06.551Z,98774.00
2023-01-27T15:56:52.344Z,98776.00
2023-01-27T15:59:27.265Z,98772.00
2023-01-27T16:02:05.868Z,98784.00
2023-01-27T16:04:36.311Z,98770.00
2023-01-27T16:07:07.856Z,98774.00
2023-01-27T16:09:43.665Z,98791.00
2023-01-27T16:12:35.225Z,98785.00
2023-01-27T16:15:35.645Z,98786.00
2023-01-27T16:18:27.636Z,98780.00
2023-01-27T16:21:06.653Z,98780.00
2023-01-27T16:23:46.003Z,98791.00
2023-01-27T16:26:30.624Z,98793.00
2023-01-27T16:29:08.428Z,98799.00
2023-01-27T16:31:40.874Z,98788.00
2023-01-27T16:34:20.771Z,98800.00
2023-01-27T16:36:50.931Z,98797.00
2023-01-27T16:39:30.863Z,98802.00
2023-01-27T16:42:03.587Z,98795.00
2023-01-27T16:44:41.201Z,98807.00
2023-01-27T16:47:21.068Z,98799.00
2023-01-27T16:49:53.803Z,98791.00
2023-01-27T16:52:40.875Z,98791.00
2023-01-27T16:55:23.056Z,98802.00
2023-01-27T16:57:56.162Z,98793.00
2023-01-27T17:00:29.755Z,98786.00
2023-01-27T17:03:01.959Z,98799.00
2023-01-27T17:05:32.189Z,98799.00
2023-01-27T17:08:06.600Z,98803.00
2023-01-27T17:10:36.556Z,98808.00
2023-01-27T17:13:09.274Z,98808.00
2023-01-27T17:15:41.674Z,98809.00
2023-01-27T17:18:12.509Z,98806.00
2023-01-27T17:20:44.451Z,98817.00
2023-01-27T17:23:24.205Z,98821.00
2023-01-27T17:25:54.425Z,98822.00
2023-01-27T17:28:28.928Z,98824.00
2023-01-27T17:31:07.569Z,98824.00
2023-01-27T17:33:38.916Z,98811.00
2023-01-27T17:36:12.816Z,98827.00
2023-01-27T17:38:47.238Z,98819.00
2023-01-27T17:41:38.305Z,98814.00
2023-01-27T17:44:15.746Z,98824.00
2023-01-27T17:46:45.709Z,98819.00
2023-01-27T17:49:17.556Z,98822.00
2023-01-27T17:51:51.323Z,98818.00
2023-01-27T17:54:27.802Z,98819.00
2023-01-27T17:57:02.607Z,98819.00
2023-01-27T17:59:35.246Z,98821.00
2023-01-27T18:02:10.333Z,98826.00
2023-01-27T18:04:42.370Z,98827.00
2023-01-27T18:07:13.395Z,98814.00
2023-01-27T18:09:47.827Z,98826.00
2023-01-27T18:12:34.438Z,98813.00
2023-01-27T18:15:39.352Z,98827.00
2023-01-27T18:18:16.495Z,98816.00
2023-01-27T18:20:46.416Z,98822.00
2023-01-27T18:23:19.665Z,98828.00
2023-01-27T18:25:53.557Z,98826.00
2023-01-27T18:28:23.735Z,98830.00
2023-01-27T18:30:56.390Z,98836.00
2023-01-27T18:33:26.470Z,98826.00
2023-01-27T18:36:00.273Z,98828.00
2023-01-27T18:38:32.675Z,98828.00
2023-01-27T18:41:11.946Z,98833.00
2023-01-27T18:43:41.919Z,98831.00
2023-01-27T18:46:15.209Z,98840.00
2023-01-27T18:48:45.247Z,98848.00
2023-01-27T18:51:17.237Z,98834.00
2023-01-27T18:53:47.643Z,98852.00
2023-01-27T18:56:17.676Z,98855.00
2023-01-27T18:58:47.706Z,98854.00
2023-01-27T19:01:24.289Z,98858.00
2023-01-27T19:03:57.531Z,98866.00
2023-01-27T19:06:28.683Z,98867.00
2023-01-27T19:08:58.757Z,98874.00
2023-01-27T19:11:28.725Z,98872.00
2023-01-27T19:13:58.679Z,98875.00
2023-01-27T19:16:33.651Z,98880.00
2023-01-27T19:19:04.602Z,98875.00
2023-01-27T19:21:34.621Z,98884.00
2023-01-27T19:24:06.105Z,98879.00
2023-01-27T19:26:36.170Z,98885.00
2023-01-27T19:29:07.446Z,98872.00
2023-01-27T19:31:40.254Z,98890.00
2023-01-27T19:34:13.757Z,98885.00
2023-01-27T19:36:46.311Z,98884.00
2023-01-27T19:39:18.081Z,98886.00
2023-01-27T19:41:48.594Z,98896.00
2023-01-27T19:44:19.076Z,98883.00
2023-01-27T19:46:52.230Z,98891.00
2023-01-27T19:49:22.823Z,98884.00
2023-01-27T19:51:53.372Z,98896.00
2023-01-27T19:54:24.093Z,98897.00
2023-01-27T19:56:54.116Z,98894.00
2023-01-27T19:59:24.261Z,98880.00
2023-01-27T20:01:57.108Z,98883.00
2023-01-27T20:04:27.194Z,98892.00
2023-01-27T20:06:57.227Z,98895.00
2023-01-27T20:09:27.173Z,98897.00
2023-01-27T20:11:57.363Z,98909.00
2023-01-27T20:14:27.334Z,98902.00
2023-01-27T20:17:00.419Z,98912.00
2023-01-27T20:19:30.635Z,98915.00
2023-01-27T20:22:01.865Z,98911.00
2023-01-27T20:24:32.320Z,98914.00
2023-01-27T20:27:02.405Z,98909.00
2023-01-27T20:29:34.682Z,98908.00
2023-01-27T20:32:09.637Z,98910.00
2023-01-27T20:34:40.792Z,98913.00
2023-01-27T20:37:11.037Z,98905.00
2023-01-27T20:39:43.584Z,98909.00
2023-01-27T20:42:16.173Z,98902.00
2023-01-27T20:44:47.623Z,98911.00
2023-01-27T20:47:20.357Z,98906.00
2023-01-27T20:49:50.626Z,98923.00
2023-01-27T20:52:22.072Z,98919.00
2023-01-27T20:54:52.101Z,98913.00
2023-01-27T20:57:25.457Z,98921.00
2023-01-27T20:59:55.381Z,98927.00
2023-01-27T21:02:30.984Z,98937.00
2023-01-27T21:05:01.001Z,98933.00
2023-01-27T21:07:31.174Z,98932.00
2023-01-27T21:10:01.271Z,98940.00
2023-01-27T21:12:32.369Z,98938.00
2023-01-27T21:15:09.909Z,98930.00
2023-01-27T21:17:43.178Z,98943.00
2023-01-27T21:20:14.653Z,98931.00
2023-01-27T21:22:44.631Z,98931.00
2023-01-27T21:25:15.157Z,98935.00
2023-01-27T21:27:45.486Z,98937.00
2023-01-27T21:30:16.263Z,98937.00
2023-01-27T21:32:48.905Z,98928.00
2023-01-27T21:35:19.474Z,98941.00
2023-01-27T21:37:49.404Z,98948.00
2023-01-27T21:40:19.926Z,98937.00
2023-01-27T21:43:03.883Z,98933.00
2023-01-27T21:45:33.847Z,98936.00
2023-01-27T21:48:06.711Z,98932.00
2023-01-27T21:50:37.108Z,98932.00
2023-01-27T21:53:11.582Z,98924.00
2023-01-27T21:55:42.243Z,98935.00
2023-01-27T21:58:12.593Z,98931.00
2023-01-27T22:00:42.568Z,98926.00
2023-01-27T22:03:15.458Z,98931.00
2023-01-27T22:05:45.862Z,98926.00
2023-01-27T22:08:15.924Z,98919.00
2023-01-27T22:10:45.878Z,98924.00
2023-01-27T22:13:15.778Z,98914.00
2023-01-27T22:15:45.747Z,98918.00
2023-01-27T22:18:18.655Z,98913.00
2023-01-27T22:20:48.610Z,98909.00
2023-01-27T22:23:20.432Z,98907.00
2023-01-27T22:25:51.615Z,98913.00
2023-01-27T22:28:23.081Z,98903.00
2023-01-27T22:30:53.457Z,98900.00
2023-01-27T22:33:25.997Z,98903.00
2023-01-27T22:36:02.188Z,98898.00
2023-01-27T22:38:32.189Z,98904.00
2023-01-27T22:41:02.406Z,98899.00
2023-01-27T22:43:32.353Z,98901.00
2023-01-27T22:46:03.997Z,98894.00
2023-01-27T22:48:36.597Z,98894.00
2023-01-27T22:51:07.336Z,98894.00
2023-01-27T22:53:37.309Z,98895.00
2023-01-27T22:56:07.930Z,98896.00
2023-01-27T22:58:38.047Z,98892.00
2023-01-27T23:01:08.640Z,98886.00
2023-01-27T23:03:41.225Z,98881.00
2023-01-27T23:06:12.031Z,98886.00
2023-01-27T23:08:41.994Z,98885.00
2023-01-27T23:11:12.094Z,98877.00
2023-01-27T23:13:42.056Z,98871.00
2023-01-27T23:16:12.251Z,98875.00
2023-01-27T23:18:44.813Z,98871.00
2023-01-27T23:21:14.988Z,98863.00
2023-01-27T23:23:44.983Z,98865.00
2023-01-27T23:26:15.156Z,98857.00
2023-01-27T23:28:45.394Z,98852.00
2023-01-27T23:31:17.194Z,98857.00
2023-01-27T23:33:50.576Z,98853.00
2023-01-27T23:36:20.607Z,98852.00
2023-01-27T23:38:50.916Z,98852.00
2023-01-27T23:41:21.877Z,98848.00
2023-01-27T23:43:55.448Z,98844.00
2023-01-27T23:46:25.720Z,98850.00
2023-01-27T23:48:58.614Z,98848.00
2023-01-27T23:51:28.592Z,98854.00
2023-01-27T23:53:58.701Z,98849.00
2023-01-27T23:56:28.668Z,98865.00
2023-01-27T23:58:58.616Z,98861.00
